sensor_id;sensor_type;location;lat;lon;timestamp;pressure;altitude;pressure_sealevel;temperature;humidity
36600;BME280;35385;55.668;37.508;2022-11-27T00:00:55;-226167.19;;;52.09;100.00
36600;BME280;35385;55.668;37.508;2022-11-27T00:01:55;-225499.88;;;52.17;100.00
36600;BME280;35385;55.668;37.508;2022-11-27T00:02:56;-225785.44;;;52.14;100.00
36600;BME280;35385;55.668;37.508;2022-11-27T00:03:56;-225712.81;;;52.15;100.00
36600;BME280;35385;55.668;37.508;2022-11-27T00:04:57;-225733.47;;;52.14;100.00
36600;BME280;35385;55.668;37.508;2022-11-27T00:05:57;-226451.53;;;52.05;100.00
36600;BME280;35385;55.668;37.508;2022-11-27T00:06:57;-226420.28;;;52.05;100.00
36600;BME280;35385;55.668;37.508;2022-11-27T00:07:58;-225888.78;;;52.12;100.00
36600;BME280;35385;55.668;37.508;2022-11-27T00:08:59;-225421.69;;;52.18;100.00
36600;BME280;35385;55.668;37.508;2022-11-27T00:09:59;-225108.84;;;52.23;100.00
36600;BME280;35385;55.668;37.508;2022-11-27T00:11:06;-225750.88;;;52.14;100.00
36600;BME280;35385;55.668;37.508;2022-11-27T00:12:07;-225755.53;;;52.14;100.00
36600;BME280;35385;55.668;37.508;2022-11-27T00:13:07;-225962.16;;;52.11;100.00
36600;BME280;35385;55.668;37.508;2022-11-27T00:14:11;-226494.03;;;52.04;100.00
36600;BME280;35385;55.668;37.508;2022-11-27T00:15:12;-226217.25;;;52.08;100.00
36600;BME280;35385;55.668;37.508;2022-11-27T00:16:13;-225764.81;;;52.14;100.00
36600;BME280;35385;55.668;37.508;2022-11-27T00:17:14;-225580.09;;;52.16;100.00
36600;BME280;35385;55.668;37.508;2022-11-27T00:18:14;-225234.63;;;52.21;100.00
36600;BME280;35385;55.668;37.508;2022-11-27T00:19:14;-225499.88;;;52.17;100.00
36600;BME280;35385;55.668;37.508;2022-11-27T00:20:15;-225813.59;;;52.13;100.00
36600;BME280;35385;55.668;37.508;2022-11-27T00:21:16;-225431.00;;;52.18;100.00
36600;BME280;35385;55.668;37.508;2022-11-27T00:22:18;-225879.47;;;52.12;100.00
36600;BME280;35385;55.668;37.508;2022-11-27T00:23:18;-226503.31;;;52.04;100.00
36600;BME280;35385;55.668;37.508;2022-11-27T00:24:18;-226410.97;;;52.05;100.00
36600;BME280;35385;55.668;37.508;2022-11-27T00:25:19;-225934.25;;;52.11;100.00
36600;BME280;35385;55.668;37.508;2022-11-27T00:26:19;-225495.25;;;52.17;100.00
36600;BME280;35385;55.668;37.508;2022-11-27T00:27:20;-225297.47;;;52.20;100.00
36600;BME280;35385;55.668;37.508;2022-11-27T00:28:20;-225485.94;;;52.17;100.00
36600;BME280;35385;55.668;37.508;2022-11-27T00:29:21;-225780.78;;;52.14;100.00
36600;BME280;35385;55.668;37.508;2022-11-27T00:30:21;-225818.22;;;52.13;100.00
36600;BME280;35385;55.668;37.508;2022-11-27T00:31:23;-226273.75;;;52.07;100.00
36600;BME280;35385;55.668;37.508;2022-11-27T00:32:26;-226999.34;;;51.98;100.00
36600;BME280;35385;55.668;37.508;2022-11-27T00:33:26;-226731.22;;;52.01;100.00
36600;BME280;35385;55.668;37.508;2022-11-27T00:34:27;-225948.22;;;52.11;100.00
36600;BME280;35385;55.668;37.508;2022-11-27T00:35:27;-226865.31;;;51.99;100.00
36600;BME280;35385;55.668;37.508;2022-11-27T00:36:28;-227445.97;;;51.92;100.00
36600;BME280;35385;55.668;37.508;2022-11-27T00:37:29;-227966.28;;;51.85;0.00
36600;BME280;35385;55.668;37.508;2022-11-27T00:38:29;-227786.06;;;51.87;0.00
36600;BME280;35385;55.668;37.508;2022-11-27T00:39:30;-227588.97;;;51.90;0.00
36600;BME280;35385;55.668;37.508;2022-11-27T00:40:30;-227741.09;;;51.88;0.00
36600;BME280;35385;55.668;37.508;2022-11-27T00:41:31;-227072.38;;;51.97;100.00
36600;BME280;35385;55.668;37.508;2022-11-27T00:42:31;-226865.31;;;51.99;100.00
36600;BME280;35385;55.668;37.508;2022-11-27T00:43:32;-227265.31;;;51.94;100.00
36600;BME280;35385;55.668;37.508;2022-11-27T00:44:33;-227528.19;;;51.91;0.00
36600;BME280;35385;55.668;37.508;2022-11-27T00:45:33;-227067.72;;;51.97;100.00
36600;BME280;35385;55.668;37.508;2022-11-27T00:46:34;-226087.41;;;52.10;100.00
36600;BME280;35385;55.668;37.508;2022-11-27T00:47:35;-225920.13;;;52.12;100.00
36600;BME280;35385;55.668;37.508;2022-11-27T00:48:35;-226354.88;;;52.06;100.00
36600;BME280;35385;55.668;37.508;2022-11-27T00:49:35;-227588.97;;;51.90;0.00
36600;BME280;35385;55.668;37.508;2022-11-27T00:50:36;-227373.03;;;51.93;100.00
36600;BME280;35385;55.668;37.508;2022-11-27T00:51:36;-227815.75;;;51.87;0.00
36600;BME280;35385;55.668;37.508;2022-11-27T00:52:36;-228158.41;;;51.82;0.00
36600;BME280;35385;55.668;37.508;2022-11-27T00:53:37;-226977.44;;;51.98;100.00
36600;BME280;35385;55.668;37.508;2022-11-27T00:54:37;-226350.25;;;52.06;100.00
36600;BME280;35385;55.668;37.508;2022-11-27T00:55:38;-226551.72;;;52.04;100.00
36600;BME280;35385;55.668;37.508;2022-11-27T00:56:38;-226626.31;;;52.03;100.00
36600;BME280;35385;55.668;37.508;2022-11-27T00:57:39;-226947.66;;;51.99;100.00
36600;BME280;35385;55.668;37.508;2022-11-27T00:58:39;-226806.16;;;52.00;100.00
36600;BME280;35385;55.668;37.508;2022-11-27T00:59:39;-226148.59;;;52.09;100.00
36600;BME280;35385;55.668;37.508;2022-11-27T01:00:40;-226354.88;;;52.06;100.00
36600;BME280;35385;55.668;37.508;2022-11-27T01:01:41;-226874.56;;;51.99;100.00
36600;BME280;35385;55.668;37.508;2022-11-27T01:02:42;-227598.22;;;51.90;0.00
36600;BME280;35385;55.668;37.508;2022-11-27T01:03:42;-227858.88;;;51.87;0.00
36600;BME280;35385;55.668;37.508;2022-11-27T01:04:44;-228177.00;;;51.82;0.00
36600;BME280;35385;55.668;37.508;2022-11-27T01:05:45;-227340.09;;;51.93;100.00
36600;BME280;35385;55.668;37.508;2022-11-27T01:06:45;-226933.72;;;51.99;100.00
36600;BME280;35385;55.668;37.508;2022-11-27T01:07:45;-226410.97;;;52.05;100.00
36600;BME280;35385;55.668;37.508;2022-11-27T01:08:46;-226490.66;;;52.05;100.00
36600;BME280;35385;55.668;37.508;2022-11-27T01:09:47;-226745.16;;;52.01;100.00
36600;BME280;35385;55.668;37.508;2022-11-27T01:10:50;-227072.38;;;51.97;100.00
36600;BME280;35385;55.668;37.508;2022-11-27T01:11:52;-227418.13;;;51.92;100.00
36600;BME280;35385;55.668;37.508;2022-11-27T01:12:52;-226820.09;;;52.00;100.00
36600;BME280;35385;55.668;37.508;2022-11-27T01:13:54;-226490.66;;;52.05;100.00
36600;BME280;35385;55.668;37.508;2022-11-27T01:14:54;-226481.38;;;52.05;100.00
36600;BME280;35385;55.668;37.508;2022-11-27T01:15:59;-226283.06;;;52.07;100.00
36600;BME280;35385;55.668;37.508;2022-11-27T01:16:59;-226087.41;;;52.10;100.00
36600;BME280;35385;55.668;37.508;2022-11-27T01:18:00;-226217.25;;;52.08;100.00
36600;BME280;35385;55.668;37.508;2022-11-27T01:19:00;-226162.56;;;52.09;100.00
36600;BME280;35385;55.668;37.508;2022-11-27T01:20:01;-226231.19;;;52.08;100.00
36600;BME280;35385;55.668;37.508;2022-11-27T01:21:01;-226096.72;;;52.10;100.00
36600;BME280;35385;55.668;37.508;2022-11-27T01:22:02;-225595.19;;;52.17;100.00
36600;BME280;35385;55.668;37.508;2022-11-27T01:23:02;-224909.34;;;52.25;100.00
36600;BME280;35385;55.668;37.508;2022-11-27T01:24:03;-224713.94;;;52.28;100.00
36600;BME280;35385;55.668;37.508;2022-11-27T01:25:03;-225703.50;;;52.15;100.00
36600;BME280;35385;55.668;37.508;2022-11-27T01:26:05;-226167.19;;;52.09;100.00
36600;BME280;35385;55.668;37.508;2022-11-27T01:27:06;-226354.88;;;52.06;100.00
36600;BME280;35385;55.668;37.508;2022-11-27T01:28:06;-227196.97;;;51.95;100.00
36600;BME280;35385;55.668;37.508;2022-11-27T01:29:07;-226533.16;;;52.04;100.00
36600;BME280;35385;55.668;37.508;2022-11-27T01:30:07;-226087.41;;;52.10;100.00
36600;BME280;35385;55.668;37.508;2022-11-27T01:31:09;-226754.44;;;52.01;100.00
36600;BME280;35385;55.668;37.508;2022-11-27T01:32:10;-227133.28;;;51.96;100.00
36600;BME280;35385;55.668;37.508;2022-11-27T01:33:10;-227432.03;;;51.92;0.00
36600;BME280;35385;55.668;37.508;2022-11-27T01:34:15;-226874.56;;;51.99;100.00
36600;BME280;35385;55.668;37.508;2022-11-27T01:35:15;-226034.06;;;52.11;100.00
36600;BME280;35385;55.668;37.508;2022-11-27T01:36:16;-226368.81;;;52.06;100.00
36600;BME280;35385;55.668;37.508;2022-11-27T01:37:16;-226319.00;;;52.07;100.00
36600;BME280;35385;55.668;37.508;2022-11-27T01:38:16;-226354.88;;;52.06;100.00
36600;BME280;35385;55.668;37.508;2022-11-27T01:39:18;-226221.94;;;52.08;100.00
36600;BME280;35385;55.668;37.508;2022-11-27T01:40:19;-225712.81;;;52.15;100.00
36600;BME280;35385;55.668;37.508;2022-11-27T01:42:19;-226092.09;;;52.10;100.00
36600;BME280;35385;55.668;37.508;2022-11-27T01:43:34;-226345.63;;;52.06;100.00
36600;BME280;35385;55.668;37.508;2022-11-27T01:45:35;-227422.75;;;51.92;0.00
36600;BME280;35385;55.668;37.508;2022-11-27T01:46:37;-227269.94;;;51.94;100.00
36600;BME280;35385;55.668;37.508;2022-11-27T01:47:41;-226792.19;;;52.00;100.00
36600;BME280;35385;55.668;37.508;2022-11-27T01:48:42;-227217.44;;;51.95;100.00
36600;BME280;35385;55.668;37.508;2022-11-27T01:49:45;-226801.50;;;52.00;100.00
36600;BME280;35385;55.668;37.508;2022-11-27T01:50:47;-226986.75;;;51.98;100.00
36600;BME280;35385;55.668;37.508;2022-11-27T01:53:11;-227518.91;;;51.91;0.00
36600;BME280;35385;55.668;37.508;2022-11-27T01:54:13;-227588.97;;;51.90;0.00
36600;BME280;35385;55.668;37.508;2022-11-27T01:55:28;-227557.88;;;51.90;0.00
36600;BME280;35385;55.668;37.508;2022-11-27T01:56:31;-227391.66;;;51.93;100.00
36600;BME280;35385;55.668;37.508;2022-11-27T01:57:54;-226844.81;;;52.00;100.00
36600;BME280;35385;55.668;37.508;2022-11-27T01:58:52;-227142.56;;;51.96;100.00
36600;BME280;35385;55.668;37.508;2022-11-27T01:59:54;-227114.69;;;51.96;100.00
36600;BME280;35385;55.668;37.508;2022-11-27T02:00:55;-226607.75;;;52.03;100.00
36600;BME280;35385;55.668;37.508;2022-11-27T02:01:55;-226670.19;;;52.02;100.00
36600;BME280;35385;55.668;37.508;2022-11-27T02:02:56;-225884.13;;;52.12;100.00
36600;BME280;35385;55.668;37.508;2022-11-27T02:03:56;-226148.59;;;52.09;100.00
36600;BME280;35385;55.668;37.508;2022-11-27T02:04:58;-225694.25;;;52.15;100.00
36600;BME280;35385;55.668;37.508;2022-11-27T02:05:58;-226278.44;;;52.07;100.00
36600;BME280;35385;55.668;37.508;2022-11-27T02:06:58;-226082.78;;;52.10;100.00
36600;BME280;35385;55.668;37.508;2022-11-27T02:08:00;-225790.09;;;52.14;100.00
36600;BME280;35385;55.668;37.508;2022-11-27T02:09:02;-225888.78;;;52.12;100.00
36600;BME280;35385;55.668;37.508;2022-11-27T02:10:03;-225888.78;;;52.12;100.00
36600;BME280;35385;55.668;37.508;2022-11-27T02:11:05;-225948.22;;;52.11;100.00
36600;BME280;35385;55.668;37.508;2022-11-27T02:13:11;-225193.91;;;52.21;100.00
36600;BME280;35385;55.668;37.508;2022-11-27T02:14:17;-225539.41;;;52.17;100.00
36600;BME280;35385;55.668;37.508;2022-11-27T02:17:02;-225870.19;;;52.12;100.00
36600;BME280;35385;55.668;37.508;2022-11-27T02:21:58;-226681.38;;;52.02;100.00
36600;BME280;35385;55.668;37.508;2022-11-27T02:23:05;-227096.06;;;51.96;100.00
36600;BME280;35385;55.668;37.508;2022-11-27T02:29:19;-226120.72;;;52.09;100.00
36600;BME280;35385;55.668;37.508;2022-11-27T02:30:21;-226579.84;;;52.03;100.00
36600;BME280;35385;55.668;37.508;2022-11-27T02:33:43;-227267.13;;;51.94;100.00
36600;BME280;35385;55.668;37.508;2022-11-27T02:35:00;-227262.50;;;51.94;100.00
36600;BME280;35385;55.668;37.508;2022-11-27T02:36:07;-227307.56;;;51.93;100.00
36600;BME280;35385;55.668;37.508;2022-11-27T02:37:15;-227882.38;;;51.86;0.00
36600;BME280;35385;55.668;37.508;2022-11-27T02:39:23;-228531.47;;;51.77;0.00
36600;BME280;35385;55.668;37.508;2022-11-27T02:41:27;-228851.31;;;51.73;0.00
36600;BME280;35385;55.668;37.508;2022-11-27T02:42:30;-228831.13;;;51.73;0.00
36600;BME280;35385;55.668;37.508;2022-11-27T02:43:33;-228203.19;;;51.81;0.00
36600;BME280;35385;55.668;37.508;2022-11-27T02:44:36;-228469.56;;;51.78;0.00
36600;BME280;35385;55.668;37.508;2022-11-27T02:45:40;-228460.25;;;51.78;0.00
36600;BME280;35385;55.668;37.508;2022-11-27T02:46:41;-227223.50;;;51.94;100.00
36600;BME280;35385;55.668;37.508;2022-11-27T02:47:43;-227253.19;;;51.94;100.00
36600;BME280;35385;55.668;37.508;2022-11-27T02:48:45;-227253.19;;;51.94;100.00
36600;BME280;35385;55.668;37.508;2022-11-27T02:49:46;-227030.56;;;51.97;100.00
36600;BME280;35385;55.668;37.508;2022-11-27T02:50:49;-227329.41;;;51.93;100.00
36600;BME280;35385;55.668;37.508;2022-11-27T02:51:53;-227812.44;;;51.87;0.00
36600;BME280;35385;55.668;37.508;2022-11-27T02:52:57;-227913.44;;;51.85;0.00
36600;BME280;35385;55.668;37.508;2022-11-27T02:53:59;-228017.22;;;51.84;0.00
36600;BME280;35385;55.668;37.508;2022-11-27T02:55:02;-227727.13;;;51.88;0.00
36600;BME280;35385;55.668;37.508;2022-11-27T02:56:09;-228269.81;;;51.80;0.00
36600;BME280;35385;55.668;37.508;2022-11-27T02:57:11;-228758.63;;;51.74;0.00
36600;BME280;35385;55.668;37.508;2022-11-27T02:58:14;-228945.38;;;51.71;0.00
36600;BME280;35385;55.668;37.508;2022-11-27T02:59:15;-229508.19;;;51.64;0.00
36600;BME280;35385;55.668;37.508;2022-11-27T03:00:16;-228985.53;;;51.71;0.00
36600;BME280;35385;55.668;37.508;2022-11-27T03:01:17;-228780.22;;;51.74;0.00
36600;BME280;35385;55.668;37.508;2022-11-27T03:02:22;-228985.53;;;51.71;0.00
36600;BME280;35385;55.668;37.508;2022-11-27T03:03:25;-228872.91;;;51.72;0.00
36600;BME280;35385;55.668;37.508;2022-11-27T03:04:30;-228193.94;;;51.81;0.00
36600;BME280;35385;55.668;37.508;2022-11-27T03:05:34;-227096.06;;;51.96;100.00
36600;BME280;35385;55.668;37.508;2022-11-27T03:06:41;-227214.19;;;51.94;100.00
36600;BME280;35385;55.668;37.508;2022-11-27T03:07:46;-227077.47;;;51.96;100.00
36600;BME280;35385;55.668;37.508;2022-11-27T03:09:50;-227721.00;;;51.87;0.00
36600;BME280;35385;55.668;37.508;2022-11-27T03:11:08;-227542.47;;;51.90;0.00
36600;BME280;35385;55.668;37.508;2022-11-27T03:12:10;-227666.78;;;51.88;0.00
36600;BME280;35385;55.668;37.508;2022-11-27T03:13:11;-227998.63;;;51.84;0.00
36600;BME280;35385;55.668;37.508;2022-11-27T03:14:11;-227933.72;;;51.85;0.00
36600;BME280;35385;55.668;37.508;2022-11-27T03:15:13;-227615.31;;;51.89;0.00
36600;BME280;35385;55.668;37.508;2022-11-27T03:18:19;-227606.06;;;51.89;0.00
36600;BME280;35385;55.668;37.508;2022-11-27T03:20:35;-227615.31;;;51.89;0.00
36600;BME280;35385;55.668;37.508;2022-11-27T03:21:38;-227472.41;;;51.91;0.00
36600;BME280;35385;55.668;37.508;2022-11-27T03:22:40;-227947.69;;;51.85;0.00
36600;BME280;35385;55.668;37.508;2022-11-27T03:23:40;-228274.47;;;51.80;0.00
36600;BME280;35385;55.668;37.508;2022-11-27T03:24:41;-228450.97;;;51.78;0.00
36600;BME280;35385;55.668;37.508;2022-11-27T03:25:41;-228717.00;;;51.74;0.00
36600;BME280;35385;55.668;37.508;2022-11-27T03:26:42;-229110.38;;;51.69;0.00
36600;BME280;35385;55.668;37.508;2022-11-27T03:27:51;-229110.38;;;51.69;0.00
36600;BME280;35385;55.668;37.508;2022-11-27T03:28:53;-229031.94;;;51.70;0.00
36600;BME280;35385;55.668;37.508;2022-11-27T03:29:58;-228381.19;;;51.79;0.00
36600;BME280;35385;55.668;37.508;2022-11-27T03:30:59;-227933.72;;;51.85;0.00
36600;BME280;35385;55.668;37.508;2022-11-27T03:32:00;-228139.81;;;51.82;0.00
36600;BME280;35385;55.668;37.508;2022-11-27T03:33:01;-228399.78;;;51.79;0.00
36600;BME280;35385;55.668;37.508;2022-11-27T03:34:01;-228784.84;;;51.74;0.00
36600;BME280;35385;55.668;37.508;2022-11-27T03:35:01;-228842.00;;;51.73;0.00
36600;BME280;35385;55.668;37.508;2022-11-27T03:36:09;-228585.44;;;51.76;0.00
36600;BME280;35385;55.668;37.508;2022-11-27T03:37:09;-228923.78;;;51.72;0.00
36600;BME280;35385;55.668;37.508;2022-11-27T03:38:10;-228707.72;;;51.74;0.00
36600;BME280;35385;55.668;37.508;2022-11-27T03:39:10;-228882.19;;;51.72;0.00
36600;BME280;35385;55.668;37.508;2022-11-27T03:40:11;-229096.44;;;51.69;0.00
36600;BME280;35385;55.668;37.508;2022-11-27T03:43:41;-229045.84;;;51.70;0.00
36600;BME280;35385;55.668;37.508;2022-11-27T03:44:47;-228817.16;;;51.73;0.00
36600;BME280;35385;55.668;37.508;2022-11-27T03:45:55;-228616.38;;;51.76;0.00
36600;BME280;35385;55.668;37.508;2022-11-27T03:50:24;-228460.25;;;51.78;0.00
36600;BME280;35385;55.668;37.508;2022-11-27T03:52:09;-228590.06;;;51.76;0.00
36600;BME280;35385;55.668;37.508;2022-11-27T03:54:31;-228767.91;;;51.74;0.00
36600;BME280;35385;55.668;37.508;2022-11-27T03:55:41;-228474.22;;;51.78;0.00
36600;BME280;35385;55.668;37.508;2022-11-27T03:57:27;-228914.50;;;51.72;0.00
36600;BME280;35385;55.668;37.508;2022-11-27T03:58:11;-229457.28;;;51.65;0.00
36600;BME280;35385;55.668;37.508;2022-11-27T03:59:31;-229064.47;;;51.70;0.00
36600;BME280;35385;55.668;37.508;2022-11-27T04:00:34;-229004.16;;;51.71;0.00
36600;BME280;35385;55.668;37.508;2022-11-27T04:01:35;-229269.53;;;51.68;0.00
36600;BME280;35385;55.668;37.508;2022-11-27T04:02:40;-228469.56;;;51.78;0.00
36600;BME280;35385;55.668;37.508;2022-11-27T04:03:41;-228221.78;;;51.81;0.00
36600;BME280;35385;55.668;37.508;2022-11-27T04:04:42;-228651.94;;;51.75;0.00
36600;BME280;35385;55.668;37.508;2022-11-27T04:05:42;-228675.19;;;51.75;0.00
36600;BME280;35385;55.668;37.508;2022-11-27T04:06:43;-229129.00;;;51.69;0.00
36600;BME280;35385;55.668;37.508;2022-11-27T04:07:43;-229825.13;;;51.60;0.00
36600;BME280;35385;55.668;37.508;2022-11-27T04:08:44;-229775.78;;;51.61;0.00
36600;BME280;35385;55.668;37.508;2022-11-27T04:09:45;-229797.25;;;51.60;0.00
36600;BME280;35385;55.668;37.508;2022-11-27T04:10:46;-229119.72;;;51.69;0.00
36600;BME280;35385;55.668;37.508;2022-11-27T04:11:46;-228994.81;;;51.71;0.00
36600;BME280;35385;55.668;37.508;2022-11-27T04:12:47;-228780.22;;;51.74;0.00
36600;BME280;35385;55.668;37.508;2022-11-27T04:13:47;-228522.13;;;51.77;0.00
36600;BME280;35385;55.668;37.508;2022-11-27T04:14:47;-228651.94;;;51.75;0.00
36600;BME280;35385;55.668;37.508;2022-11-27T04:15:48;-229237.03;;;51.68;0.00
36600;BME280;35385;55.668;37.508;2022-11-27T04:16:48;-229478.75;;;51.65;0.00
36600;BME280;35385;55.668;37.508;2022-11-27T04:17:49;-229651.28;;;51.62;0.00
36600;BME280;35385;55.668;37.508;2022-11-27T04:18:49;-229447.97;;;51.65;0.00
36600;BME280;35385;55.668;37.508;2022-11-27T04:19:49;-229517.47;;;51.64;0.00
36600;BME280;35385;55.668;37.508;2022-11-27T04:20:50;-229241.66;;;51.68;0.00
36600;BME280;35385;55.668;37.508;2022-11-27T04:21:50;-228647.31;;;51.75;0.00
36600;BME280;35385;55.668;37.508;2022-11-27T04:22:50;-229036.59;;;51.70;0.00
36600;BME280;35385;55.668;37.508;2022-11-27T04:23:51;-229036.59;;;51.70;0.00
36600;BME280;35385;55.668;37.508;2022-11-27T04:24:51;-229601.94;;;51.63;0.00
36600;BME280;35385;55.668;37.508;2022-11-27T04:25:51;-229875.91;;;51.59;0.00
36600;BME280;35385;55.668;37.508;2022-11-27T04:26:52;-230065.91;;;51.56;0.00
36600;BME280;35385;55.668;37.508;2022-11-27T04:27:52;-230093.81;;;51.56;0.00
36600;BME280;35385;55.668;37.508;2022-11-27T04:28:53;-229841.94;;;51.60;0.00
36600;BME280;35385;55.668;37.508;2022-11-27T04:29:53;-229628.06;;;51.62;0.00
36600;BME280;35385;55.668;37.508;2022-11-27T04:30:53;-229623.41;;;51.62;0.00
36600;BME280;35385;55.668;37.508;2022-11-27T04:31:54;-229862.00;;;51.59;0.00
36600;BME280;35385;55.668;37.508;2022-11-27T04:32:54;-229827.97;;;51.60;0.00
36600;BME280;35385;55.668;37.508;2022-11-27T04:33:54;-229757.19;;;51.61;0.00
36600;BME280;35385;55.668;37.508;2022-11-27T04:34:55;-229323.34;;;51.67;0.00
36600;BME280;35385;55.668;37.508;2022-11-27T04:35:55;-229827.97;;;51.60;0.00
36600;BME280;35385;55.668;37.508;2022-11-27T04:36:55;-230207.28;;;51.55;0.00
36600;BME280;35385;55.668;37.508;2022-11-27T04:37:56;-230207.28;;;51.55;0.00
36600;BME280;35385;55.668;37.508;2022-11-27T04:38:57;-229757.19;;;51.61;0.00
36600;BME280;35385;55.668;37.508;2022-11-27T04:39:57;-229766.47;;;51.61;0.00
36600;BME280;35385;55.668;37.508;2022-11-27T04:40:58;-229857.31;;;51.59;0.00
36600;BME280;35385;55.668;37.508;2022-11-27T04:41:58;-229489.59;;;51.64;0.00
36600;BME280;35385;55.668;37.508;2022-11-27T04:42:58;-229809.41;;;51.60;0.00
36600;BME280;35385;55.668;37.508;2022-11-27T04:43:59;-230003.09;;;51.57;0.00
36600;BME280;35385;55.668;37.508;2022-11-27T04:44:59;-229860.19;;;51.59;0.00
36600;BME280;35385;55.668;37.508;2022-11-27T04:45:59;-230351.38;;;51.52;0.00
36600;BME280;35385;55.668;37.508;2022-11-27T04:47:00;-230587.28;;;51.49;0.00
36600;BME280;35385;55.668;37.508;2022-11-27T04:48:00;-230383.41;;;51.52;0.00
36600;BME280;35385;55.668;37.508;2022-11-27T04:49:01;-230494.00;;;51.51;0.00
36600;BME280;35385;55.668;37.508;2022-11-27T04:50:01;-230767.72;;;51.47;0.00
36600;BME280;35385;55.668;37.508;2022-11-27T04:51:02;-231345.19;;;51.39;0.00
36600;BME280;35385;55.668;37.508;2022-11-27T04:52:02;-231467.19;;;51.37;0.00
36600;BME280;35385;55.668;37.508;2022-11-27T04:53:03;-231732.34;;;51.34;0.00
36600;BME280;35385;55.668;37.508;2022-11-27T04:54:03;-231723.06;;;51.34;0.00
36600;BME280;35385;55.668;37.508;2022-11-27T04:55:04;-231271.56;;;51.40;0.00
36600;BME280;35385;55.668;37.508;2022-11-27T04:56:04;-230692.53;;;51.48;0.00
36600;BME280;35385;55.668;37.508;2022-11-27T04:57:05;-230506.03;;;51.50;0.00
36600;BME280;35385;55.668;37.508;2022-11-27T04:58:05;-230929.97;;;51.45;0.00
36600;BME280;35385;55.668;37.508;2022-11-27T04:59:05;-231079.50;;;51.42;0.00
36600;BME280;35385;55.668;37.508;2022-11-27T05:00:06;-231093.47;;;51.42;0.00
36600;BME280;35385;55.668;37.508;2022-11-27T05:01:07;-231861.56;;;51.32;0.00
36600;BME280;35385;55.668;37.508;2022-11-27T05:02:08;-232381.84;;;51.25;0.00
36600;BME280;35385;55.668;37.508;2022-11-27T05:03:08;-232106.28;;;51.29;0.00
36600;BME280;35385;55.668;37.508;2022-11-27T05:04:09;-232486.03;;;51.23;0.00
36600;BME280;35385;55.668;37.508;2022-11-27T05:05:09;-233197.78;;;51.14;0.00
36600;BME280;35385;55.668;37.508;2022-11-27T05:06:09;-232538.78;;;51.23;0.00
36600;BME280;35385;55.668;37.508;2022-11-27T05:07:10;-232802.56;;;51.19;0.00
36600;BME280;35385;55.668;37.508;2022-11-27T05:08:10;-232632.47;;;51.21;0.00
36600;BME280;35385;55.668;37.508;2022-11-27T05:09:10;-231995.09;;;51.30;0.00
36600;BME280;35385;55.668;37.508;2022-11-27T05:10:11;-231448.59;;;51.37;0.00
36600;BME280;35385;55.668;37.508;2022-11-27T05:11:12;-230885.41;;;51.45;0.00
36600;BME280;35385;55.668;37.508;2022-11-27T05:12:13;-230578.00;;;51.49;0.00
36600;BME280;35385;55.668;37.508;2022-11-27T05:13:13;-230692.53;;;51.48;0.00
36600;BME280;35385;55.668;37.508;2022-11-27T05:14:14;-231111.47;;;51.42;0.00
36600;BME280;35385;55.668;37.508;2022-11-27T05:15:14;-231670.03;;;51.35;0.00
36600;BME280;35385;55.668;37.508;2022-11-27T05:16:14;-231936.13;;;51.31;0.00
36600;BME280;35385;55.668;37.508;2022-11-27T05:17:15;-231646.78;;;51.35;0.00
36600;BME280;35385;55.668;37.508;2022-11-27T05:18:15;-231902.44;;;51.31;0.00
36600;BME280;35385;55.668;37.508;2022-11-27T05:19:16;-231632.84;;;51.35;0.00
36600;BME280;35385;55.668;37.508;2022-11-27T05:20:17;-231335.84;;;51.39;0.00
36600;BME280;35385;55.668;37.508;2022-11-27T05:21:17;-231736.97;;;51.34;0.00
36600;BME280;35385;55.668;37.508;2022-11-27T05:22:17;-232047.34;;;51.29;0.00
36600;BME280;35385;55.668;37.508;2022-11-27T05:23:18;-232495.31;;;51.23;0.00
36600;BME280;35385;55.668;37.508;2022-11-27T05:24:19;-231791.88;;;51.33;0.00
36600;BME280;35385;55.668;37.508;2022-11-27T05:25:19;-231476.50;;;51.37;0.00
36600;BME280;35385;55.668;37.508;2022-11-27T05:26:20;-231467.19;;;51.37;0.00
36600;BME280;35385;55.668;37.508;2022-11-27T05:27:20;-231656.13;;;51.35;0.00
36600;BME280;35385;55.668;37.508;2022-11-27T05:28:21;-231782.56;;;51.33;0.00
36600;BME280;35385;55.668;37.508;2022-11-27T05:29:22;-231537.44;;;51.36;0.00
36600;BME280;35385;55.668;37.508;2022-11-27T05:30:22;-231467.19;;;51.37;0.00
36600;BME280;35385;55.668;37.508;2022-11-27T05:31:22;-231925.69;;;51.31;0.00
36600;BME280;35385;55.668;37.508;2022-11-27T05:32:23;-232575.97;;;51.23;0.00
36600;BME280;35385;55.668;37.508;2022-11-27T05:33:23;-232047.34;;;51.29;0.00
36600;BME280;35385;55.668;37.508;2022-11-27T05:34:23;-231665.41;;;51.35;0.00
36600;BME280;35385;55.668;37.508;2022-11-27T05:35:24;-232240.38;;;51.27;0.00
36600;BME280;35385;55.668;37.508;2022-11-27T05:36:24;-231796.53;;;51.33;0.00
36600;BME280;35385;55.668;37.508;2022-11-27T05:37:25;-231847.59;;;51.32;0.00
36600;BME280;35385;55.668;37.508;2022-11-27T05:38:25;-231317.28;;;51.39;0.00
36600;BME280;35385;55.668;37.508;2022-11-27T05:39:25;-231211.00;;;51.41;0.00
36600;BME280;35385;55.668;37.508;2022-11-27T05:40:26;-230876.13;;;51.45;0.00
36600;BME280;35385;55.668;37.508;2022-11-27T05:41:26;-231220.28;;;51.41;0.00
36600;BME280;35385;55.668;37.508;2022-11-27T05:42:27;-231861.56;;;51.32;0.00
36600;BME280;35385;55.668;37.508;2022-11-27T05:43:27;-232038.06;;;51.29;0.00
36600;BME280;35385;55.668;37.508;2022-11-27T05:44:28;-232859.41;;;51.19;0.00
36600;BME280;35385;55.668;37.508;2022-11-27T05:45:28;-233256.84;;;51.13;0.00
36600;BME280;35385;55.668;37.508;2022-11-27T05:46:29;-233572.25;;;51.09;0.00
36600;BME280;35385;55.668;37.508;2022-11-27T05:47:29;-233477.94;;;51.10;0.00